createdAt,value
2023-01-07T00:01:41.608Z,4.80
2023-01-07T00:04:08.372Z,4.90
2023-01-07T00:06:35.215Z,5.10
2023-01-07T00:09:01.957Z,5.20
2023-01-07T00:11:28.685Z,5.00
2023-01-07T00:13:55.537Z,5.30
2023-01-07T00:16:22.352Z,5.40
2023-01-07T00:18:49.145Z,5.40
2023-01-07T00:21:15.766Z,5.30
2023-01-07T00:23:42.406Z,5.40
2023-01-07T00:26:09.064Z,5.30
2023-01-07T00:28:35.780Z,5.40
2023-01-07T00:31:02.475Z,5.50
2023-01-07T00:33:29.191Z,5.60
2023-01-07T00:35:55.886Z,5.60
2023-01-07T00:38:22.522Z,5.60
2023-01-07T00:40:49.202Z,5.60
2023-01-07T00:43:15.882Z,5.60
2023-01-07T00:45:42.557Z,5.30
2023-01-07T00:48:09.192Z,5.40
2023-01-07T00:50:35.899Z,4.60
2023-01-07T00:53:02.594Z,4.90
2023-01-07T00:55:29.264Z,5.10
2023-01-07T00:57:56.799Z,5.40
2023-01-07T01:00:23.709Z,5.50
2023-01-07T01:02:50.545Z,5.30
2023-01-07T01:05:17.279Z,4.90
2023-01-07T01:07:43.936Z,4.80
2023-01-07T01:10:10.585Z,5.10
2023-01-07T01:12:37.304Z,5.20
2023-01-07T01:15:04.006Z,5.30
2023-01-07T01:17:30.789Z,5.40
2023-01-07T01:19:57.461Z,5.50
2023-01-07T01:22:24.297Z,5.40
2023-01-07T01:24:50.952Z,5.30
2023-01-07T01:27:17.588Z,5.10
2023-01-07T01:29:44.303Z,4.90
2023-01-07T01:32:10.979Z,5.10
2023-01-07T01:34:37.671Z,5.10
2023-01-07T01:37:04.309Z,5.00
2023-01-07T01:39:30.991Z,4.70
2023-01-07T01:41:57.610Z,4.90
2023-01-07T01:44:24.287Z,4.70
2023-01-07T01:46:50.998Z,4.80
2023-01-07T01:49:17.682Z,4.90
2023-01-07T01:51:44.382Z,4.90
2023-01-07T01:54:11.067Z,5.00
2023-01-07T01:56:37.709Z,4.90
2023-01-07T01:59:04.342Z,5.00
2023-01-07T02:01:31.274Z,5.10
2023-01-07T02:03:58.069Z,5.20
2023-01-07T02:06:24.764Z,5.00
2023-01-07T02:08:51.492Z,5.10
2023-01-07T02:11:18.176Z,5.10
2023-01-07T02:13:44.962Z,5.10
2023-01-07T02:16:11.745Z,5.00
2023-01-07T02:18:38.499Z,5.10
2023-01-07T02:21:05.421Z,5.20
2023-01-07T02:23:32.106Z,5.10
2023-01-07T02:25:58.973Z,5.20
2023-01-07T02:28:25.883Z,5.20
2023-01-07T02:30:52.590Z,5.30
2023-01-07T02:33:19.314Z,5.20
2023-01-07T02:35:45.953Z,5.10
2023-01-07T02:38:12.615Z,5.20
2023-01-07T02:40:39.232Z,5.20
2023-01-07T02:43:05.932Z,5.20
2023-01-07T02:45:32.625Z,5.30
2023-01-07T02:47:59.357Z,5.40
2023-01-07T02:50:26.065Z,5.40
2023-01-07T02:52:52.957Z,5.30
2023-01-07T02:55:19.712Z,5.20
2023-01-07T02:57:46.509Z,5.10
2023-01-07T03:00:13.179Z,5.20
2023-01-07T03:02:39.856Z,5.10
2023-01-07T03:05:06.565Z,5.10
2023-01-07T03:07:33.242Z,5.10
2023-01-07T03:09:59.911Z,5.00
2023-01-07T03:12:26.627Z,4.90
2023-01-07T03:14:53.287Z,5.00
2023-01-07T03:17:19.947Z,4.90
2023-01-07T03:19:46.561Z,5.00
2023-01-07T03:22:13.223Z,5.10
2023-01-07T03:24:39.846Z,5.10
2023-01-07T03:27:06.493Z,5.10
2023-01-07T03:29:33.423Z,5.10
2023-01-07T03:32:00.109Z,5.10
2023-01-07T03:34:26.816Z,5.10
2023-01-07T03:36:53.475Z,5.20
2023-01-07T03:39:20.242Z,5.20
2023-01-07T03:41:46.939Z,5.10
2023-01-07T03:44:13.615Z,5.20
2023-01-07T03:46:40.255Z,5.10
2023-01-07T03:49:07.589Z,4.80
2023-01-07T03:51:34.285Z,4.60
2023-01-07T03:54:00.960Z,4.80
2023-01-07T03:56:27.614Z,4.90
2023-01-07T03:58:54.317Z,4.70
2023-01-07T04:01:21.143Z,4.70
2023-01-07T04:03:47.979Z,4.80
2023-01-07T04:06:14.640Z,4.80
2023-01-07T04:08:41.338Z,4.60
2023-01-07T04:11:08.028Z,4.70
2023-01-07T04:13:34.901Z,4.50
2023-01-07T04:16:01.575Z,4.60
2023-01-07T04:18:28.237Z,4.60
2023-01-07T04:20:54.896Z,4.80
2023-01-07T04:23:21.575Z,4.80
2023-01-07T04:25:48.230Z,4.80
2023-01-07T04:28:14.883Z,4.70
2023-01-07T04:30:41.663Z,4.70
2023-01-07T04:33:08.524Z,4.70
2023-01-07T04:35:35.240Z,4.60
2023-01-07T04:38:02.145Z,4.60
2023-01-07T04:40:28.819Z,4.50
2023-01-07T04:42:55.492Z,4.70
2023-01-07T04:45:22.112Z,4.70
2023-01-07T04:47:48.764Z,4.50
2023-01-07T04:50:15.450Z,4.50
2023-01-07T04:52:42.356Z,4.60
2023-01-07T04:55:09.084Z,4.70
2023-01-07T04:57:35.758Z,4.70
2023-01-07T05:00:02.493Z,4.60
2023-01-07T05:02:29.182Z,4.30
2023-01-07T05:04:55.843Z,4.30
2023-01-07T05:07:22.489Z,4.50
2023-01-07T05:09:49.124Z,4.50
2023-01-07T05:12:15.818Z,4.30
2023-01-07T05:14:42.507Z,4.50
2023-01-07T05:17:09.297Z,4.40
2023-01-07T05:19:35.948Z,4.50
2023-01-07T05:22:02.604Z,4.50
2023-01-07T05:24:29.233Z,4.60
2023-01-07T05:26:55.867Z,4.60
2023-01-07T05:29:22.593Z,4.70
2023-01-07T05:31:49.275Z,4.60
2023-01-07T05:34:15.916Z,4.50
2023-01-07T05:36:42.573Z,4.50
2023-01-07T05:39:09.239Z,4.40
2023-01-07T05:41:36.148Z,4.30
2023-01-07T05:44:02.782Z,4.20
2023-01-07T05:46:29.620Z,4.30
2023-01-07T05:48:56.289Z,4.30
2023-01-07T05:51:22.933Z,4.30
2023-01-07T05:53:49.577Z,4.30
2023-01-07T05:56:16.252Z,4.40
2023-01-07T05:58:42.905Z,4.40
2023-01-07T06:01:09.671Z,3.90
2023-01-07T06:03:36.449Z,4.00
2023-01-07T06:06:03.172Z,4.20
2023-01-07T06:08:29.858Z,4.30
2023-01-07T06:10:56.524Z,4.30
2023-01-07T06:13:23.261Z,4.40
2023-01-07T06:15:50.059Z,4.30
2023-01-07T06:18:16.771Z,4.50
2023-01-07T06:20:43.540Z,4.50
2023-01-07T06:23:10.239Z,4.60
2023-01-07T06:25:36.882Z,4.50
2023-01-07T06:28:03.589Z,4.30
2023-01-07T06:30:30.243Z,4.40
2023-01-07T06:32:56.955Z,4.40
2023-01-07T06:35:23.606Z,4.40
2023-01-07T06:37:50.272Z,4.40
2023-01-07T06:40:17.016Z,4.40
2023-01-07T06:42:43.953Z,4.40
2023-01-07T06:45:10.863Z,4.40
2023-01-07T06:47:37.606Z,4.40
2023-01-07T06:50:04.291Z,4.50
2023-01-07T06:52:30.990Z,4.30
2023-01-07T06:54:57.638Z,4.40
2023-01-07T06:57:24.489Z,4.40
2023-01-07T06:59:51.184Z,4.40
2023-01-07T07:02:17.921Z,4.50
2023-01-07T07:04:44.824Z,4.50
2023-01-07T07:07:11.488Z,4.60
2023-01-07T07:09:38.195Z,4.70
2023-01-07T07:12:04.897Z,4.70
2023-01-07T07:14:31.561Z,4.60
2023-01-07T07:16:58.355Z,4.70
2023-01-07T07:19:25.039Z,4.60
2023-01-07T07:21:51.681Z,4.80
2023-01-07T07:24:18.667Z,4.80
2023-01-07T07:26:45.634Z,4.90
2023-01-07T07:29:12.371Z,4.90
2023-01-07T07:31:39.151Z,5.10
2023-01-07T07:34:05.820Z,5.20
2023-01-07T07:36:32.576Z,5.30
2023-01-07T07:38:59.244Z,5.40
2023-01-07T07:41:25.933Z,5.50
2023-01-07T07:43:52.605Z,5.60
2023-01-07T07:46:19.356Z,5.70
2023-01-07T07:48:46.097Z,5.60
2023-01-07T07:51:12.765Z,5.50
2023-01-07T07:53:39.524Z,5.60
2023-01-07T07:56:06.252Z,5.60
2023-01-07T07:58:32.888Z,5.70
2023-01-07T08:00:59.545Z,5.80
2023-01-07T08:03:26.526Z,5.90
2023-01-07T08:05:53.231Z,6.00
2023-01-07T08:08:19.948Z,6.10
2023-01-07T08:10:46.594Z,6.20
2023-01-07T08:13:13.288Z,6.50
2023-01-07T08:15:40.189Z,6.50
2023-01-07T08:18:06.832Z,6.70
2023-01-07T08:20:33.781Z,6.90
2023-01-07T08:23:00.414Z,7.00
2023-01-07T08:25:27.090Z,7.10
2023-01-07T08:27:53.889Z,7.30
2023-01-07T08:30:20.602Z,7.50
2023-01-07T08:32:47.255Z,7.50
2023-01-07T08:35:14.088Z,7.50
2023-01-07T08:37:40.787Z,7.50
2023-01-07T08:40:07.516Z,7.60
2023-01-07T08:42:34.135Z,7.60
2023-01-07T08:45:00.883Z,7.70
2023-01-07T08:47:27.548Z,7.70
2023-01-07T08:49:54.252Z,7.90
2023-01-07T08:52:21.126Z,8.10
2023-01-07T08:54:48.250Z,8.20
2023-01-07T08:57:14.973Z,8.10
2023-01-07T08:59:41.635Z,8.00
2023-01-07T09:02:08.554Z,8.20
2023-01-07T09:04:35.257Z,8.20
2023-01-07T09:07:02.158Z,8.30
2023-01-07T09:09:28.809Z,8.10
2023-01-07T09:11:55.443Z,8.20
2023-01-07T09:14:22.060Z,8.40
2023-01-07T09:19:32.859Z,8.90
2023-01-07T09:21:59.548Z,9.10
2023-01-07T09:24:26.210Z,9.10
2023-01-07T09:26:52.872Z,9.00
2023-01-07T09:29:19.578Z,9.10
2023-01-07T09:31:46.283Z,9.20
2023-01-07T09:34:13.022Z,9.20
2023-01-07T09:36:39.695Z,9.20
2023-01-07T09:39:06.338Z,9.50
2023-01-07T09:41:32.998Z,9.60
2023-01-07T09:44:01.823Z,9.20
2023-01-07T09:46:28.962Z,9.20
2023-01-07T09:48:55.751Z,9.50
2023-01-07T09:51:22.429Z,9.30
2023-01-07T09:53:49.086Z,9.50
2023-01-07T09:56:15.765Z,9.20
2023-01-07T09:58:42.457Z,9.00
2023-01-07T10:01:09.280Z,9.20
2023-01-07T10:03:36.052Z,9.40
2023-01-07T10:06:03.000Z,9.20
2023-01-07T10:08:32.149Z,9.20
2023-01-07T10:10:59.097Z,9.10
2023-01-07T10:13:25.783Z,8.90
2023-01-07T10:15:52.448Z,9.00
2023-01-07T10:18:19.106Z,9.00
2023-01-07T10:20:45.803Z,9.30
2023-01-07T10:23:12.520Z,9.40
2023-01-07T10:25:39.449Z,9.80
2023-01-07T10:28:06.115Z,9.80
2023-01-07T10:30:32.737Z,9.80
2023-01-07T10:32:59.421Z,9.70
2023-01-07T10:35:26.115Z,10.00
2023-01-07T10:37:52.811Z,9.90
2023-01-07T10:40:19.774Z,10.00
2023-01-07T10:42:46.501Z,10.00
2023-01-07T10:45:13.252Z,10.20
2023-01-07T10:47:40.076Z,10.30
2023-01-07T10:50:06.787Z,10.40
2023-01-07T10:52:33.453Z,10.20
2023-01-07T10:55:00.244Z,10.30
2023-01-07T10:57:26.874Z,10.40
2023-01-07T10:59:53.573Z,10.60
2023-01-07T11:02:20.540Z,10.50
2023-01-07T11:04:47.545Z,10.70
2023-01-07T11:07:14.295Z,10.60
2023-01-07T11:09:40.993Z,10.70
2023-01-07T11:12:07.679Z,11.00
2023-01-07T11:14:34.423Z,11.20
2023-01-07T11:17:01.050Z,11.30
2023-01-07T11:19:27.947Z,11.40
2023-01-07T11:21:54.747Z,11.30
2023-01-07T11:24:21.597Z,10.70
2023-01-07T11:26:48.258Z,10.90
2023-01-07T11:29:14.955Z,11.20
2023-01-07T11:31:41.690Z,11.10
2023-01-07T11:34:08.466Z,11.30
2023-01-07T11:36:35.175Z,11.60
2023-01-07T11:39:01.817Z,11.70
2023-01-07T11:41:28.558Z,11.50
2023-01-07T11:43:55.251Z,11.20
2023-01-07T11:46:23.893Z,11.40
2023-01-07T11:48:51.866Z,11.40
2023-01-07T11:51:18.506Z,11.70
2023-01-07T11:53:45.229Z,11.70
2023-01-07T11:56:11.926Z,11.70
2023-01-07T11:58:38.890Z,11.90
2023-01-07T12:01:05.722Z,11.70
2023-01-07T12:03:32.524Z,11.60
2023-01-07T12:05:59.220Z,11.50
2023-01-07T12:08:25.872Z,11.60
2023-01-07T12:10:52.564Z,11.60
2023-01-07T12:13:19.327Z,11.50
2023-01-07T12:15:46.072Z,11.60
2023-01-07T12:18:12.756Z,11.90
2023-01-07T12:20:39.428Z,11.90
2023-01-07T12:23:06.325Z,12.10
2023-01-07T12:25:33.763Z,11.80
2023-01-07T12:28:01.131Z,12.00
2023-01-07T12:30:27.809Z,12.10
2023-01-07T12:32:54.490Z,12.20
2023-01-07T12:35:21.221Z,12.40
2023-01-07T12:37:47.866Z,12.30
2023-01-07T12:40:14.595Z,12.20
2023-01-07T12:42:41.524Z,12.10
2023-01-07T12:45:08.354Z,12.50
2023-01-07T12:47:35.354Z,12.50
2023-01-07T12:50:02.120Z,12.50
2023-01-07T12:52:28.742Z,12.50
2023-01-07T12:54:55.415Z,12.50
2023-01-07T12:57:22.104Z,12.50
2023-01-07T12:59:48.759Z,12.60
2023-01-07T13:02:15.560Z,12.70
2023-01-07T13:04:42.469Z,12.40
2023-01-07T13:07:09.204Z,12.60
2023-01-07T13:09:35.911Z,12.70
2023-01-07T13:12:02.598Z,12.90
2023-01-07T13:14:29.255Z,12.80
2023-01-07T13:16:55.905Z,12.40
2023-01-07T13:19:22.599Z,12.30
2023-01-07T13:21:49.285Z,12.50
2023-01-07T13:24:19.177Z,12.50
2023-01-07T13:26:46.013Z,12.70
2023-01-07T13:29:12.729Z,12.90
2023-01-07T13:31:41.892Z,13.00
2023-01-07T13:34:09.500Z,13.20
2023-01-07T13:36:36.151Z,13.20
2023-01-07T13:39:02.815Z,13.30
2023-01-07T13:41:29.522Z,13.10
2023-01-07T13:43:56.374Z,12.90
2023-01-07T13:46:23.283Z,13.00
2023-01-07T13:48:50.026Z,13.10
2023-01-07T13:51:16.723Z,13.20
2023-01-07T13:53:43.389Z,13.00
2023-01-07T13:56:10.107Z,13.00
2023-01-07T13:58:37.069Z,13.10
2023-01-07T14:01:03.902Z,13.10
2023-01-07T14:03:30.607Z,13.10
2023-01-07T14:05:57.338Z,12.80
2023-01-07T14:08:23.988Z,12.70
2023-01-07T14:10:50.663Z,12.80
2023-01-07T14:13:17.333Z,12.70
2023-01-07T14:15:44.076Z,12.70
2023-01-07T14:18:10.789Z,12.40
2023-01-07T14:20:37.467Z,12.60
2023-01-07T14:23:04.213Z,12.40
2023-01-07T14:25:30.884Z,12.20
2023-01-07T14:27:57.559Z,12.30
2023-01-07T14:30:24.204Z,12.10
2023-01-07T14:32:50.861Z,12.00
2023-01-07T14:35:17.522Z,12.20
2023-01-07T14:37:44.157Z,12.40
2023-01-07T14:40:10.809Z,12.40
2023-01-07T14:42:37.535Z,12.50
2023-01-07T14:45:04.229Z,12.20
2023-01-07T14:47:30.951Z,12.20
2023-01-07T14:49:57.699Z,12.20
2023-01-07T14:52:24.403Z,12.20
2023-01-07T14:54:51.188Z,12.10
2023-01-07T14:57:17.893Z,11.60
2023-01-07T14:59:44.593Z,11.30
2023-01-07T15:02:11.311Z,11.50
2023-01-07T15:04:38.036Z,11.60
2023-01-07T15:07:04.736Z,11.60
2023-01-07T15:09:31.511Z,11.30
2023-01-07T15:11:58.228Z,11.40
2023-01-07T15:14:24.918Z,11.40
2023-01-07T15:16:51.582Z,11.40
2023-01-07T15:19:18.273Z,11.30
2023-01-07T15:21:44.947Z,11.10
2023-01-07T15:24:11.679Z,11.10
2023-01-07T15:26:38.384Z,10.70
2023-01-07T15:29:05.062Z,10.50
2023-01-07T15:31:31.720Z,10.50
2023-01-07T15:33:58.484Z,10.40
2023-01-07T15:36:25.159Z,10.40
2023-01-07T15:38:51.841Z,10.50
2023-01-07T15:41:18.482Z,10.30
2023-01-07T15:43:45.152Z,10.30
2023-01-07T15:46:11.860Z,10.40
2023-01-07T15:48:38.833Z,10.40
2023-01-07T15:51:05.520Z,10.40
2023-01-07T15:53:32.333Z,10.30
2023-01-07T15:55:59.340Z,10.30
2023-01-07T15:58:26.070Z,10.20
2023-01-07T16:00:52.760Z,10.20
2023-01-07T16:03:19.433Z,10.10
2023-01-07T16:05:46.174Z,9.70
2023-01-07T16:08:12.793Z,9.40
2023-01-07T16:10:39.439Z,9.50
2023-01-07T16:13:06.082Z,9.50
2023-01-07T16:15:32.886Z,9.20
2023-01-07T16:17:59.521Z,9.30
2023-01-07T16:20:28.059Z,9.30
2023-01-07T16:22:55.899Z,9.40
2023-01-07T16:25:22.603Z,9.40
2023-01-07T16:27:49.437Z,9.30
2023-01-07T16:30:16.121Z,9.00
2023-01-07T16:32:42.894Z,8.80
2023-01-07T16:35:09.581Z,8.80
2023-01-07T16:37:37.735Z,9.00
2023-01-07T16:40:04.589Z,9.00
2023-01-07T16:42:31.347Z,8.90
2023-01-07T16:44:57.984Z,8.80
2023-01-07T16:47:24.673Z,8.70
2023-01-07T16:49:51.572Z,8.80
2023-01-07T16:52:18.189Z,8.60
2023-01-07T16:54:44.885Z,8.50
2023-01-07T16:57:11.522Z,8.10
2023-01-07T16:59:38.249Z,8.40
2023-01-07T17:02:04.894Z,8.40
2023-01-07T17:04:31.543Z,8.40
2023-01-07T17:06:58.757Z,8.30
2023-01-07T17:09:25.567Z,8.30
2023-01-07T17:11:52.515Z,8.30
2023-01-07T17:14:19.164Z,8.30
2023-01-07T17:16:45.862Z,8.20
2023-01-07T17:19:12.630Z,8.10
2023-01-07T17:21:39.259Z,7.90
2023-01-07T17:24:05.957Z,7.40
2023-01-07T17:26:40.777Z,7.30
2023-01-07T17:29:07.865Z,7.50
2023-01-07T17:31:34.510Z,7.60
2023-01-07T17:34:01.225Z,7.80
2023-01-07T17:36:28.491Z,7.70
2023-01-07T17:38:55.124Z,7.70
2023-01-07T17:41:21.778Z,7.40
2023-01-07T17:43:48.567Z,7.30
2023-01-07T17:46:15.307Z,6.90
2023-01-07T17:48:42.028Z,7.10
2023-01-07T17:51:08.748Z,7.30
2023-01-07T17:53:35.413Z,7.40
2023-01-07T17:56:02.298Z,7.40
2023-01-07T17:58:28.989Z,7.20
2023-01-07T18:00:55.744Z,6.90
2023-01-07T18:03:22.488Z,6.90
2023-01-07T18:05:49.117Z,7.00
2023-01-07T18:08:15.818Z,7.00
2023-01-07T18:10:42.526Z,7.10
2023-01-07T18:13:09.336Z,7.20
2023-01-07T18:15:36.007Z,7.20
2023-01-07T18:18:02.646Z,7.10
2023-01-07T18:20:29.325Z,7.00
2023-01-07T18:22:55.968Z,6.60
2023-01-07T18:25:22.687Z,6.80
2023-01-07T18:27:49.534Z,6.80
2023-01-07T18:30:16.230Z,6.20
2023-01-07T18:32:43.187Z,6.20
2023-01-07T18:35:09.976Z,6.50
2023-01-07T18:37:36.777Z,6.70
2023-01-07T18:40:03.688Z,6.70
2023-01-07T18:42:30.408Z,6.40
2023-01-07T18:44:57.094Z,6.60
2023-01-07T18:47:23.719Z,6.60
2023-01-07T18:49:50.431Z,6.40
2023-01-07T18:52:17.239Z,6.30
2023-01-07T18:54:44.170Z,6.40
2023-01-07T18:57:10.914Z,6.40
2023-01-07T18:59:37.728Z,6.40
2023-01-07T19:02:04.948Z,5.50
2023-01-07T19:04:31.620Z,5.50
2023-01-07T19:06:58.342Z,5.60
2023-01-07T19:09:25.065Z,5.60
2023-01-07T19:11:51.692Z,5.60
2023-01-07T19:14:18.437Z,5.80
2023-01-07T19:16:45.317Z,5.80
2023-01-07T19:19:11.993Z,5.10
2023-01-07T19:21:38.791Z,5.30
2023-01-07T19:24:05.610Z,5.50
2023-01-07T19:26:32.477Z,5.70
2023-01-07T19:28:59.142Z,5.80
2023-01-07T19:31:25.787Z,5.90
2023-01-07T19:33:52.587Z,5.60
2023-01-07T19:36:19.292Z,5.80
2023-01-07T19:38:45.993Z,5.50
2023-01-07T19:41:12.685Z,5.40
2023-01-07T19:43:39.368Z,5.10
2023-01-07T19:46:08.278Z,4.80
2023-01-07T19:48:35.018Z,4.60
2023-01-07T19:51:01.644Z,5.00
2023-01-07T19:53:28.643Z,5.30
2023-01-07T19:55:55.336Z,5.50
2023-01-07T19:58:22.058Z,5.20
2023-01-07T20:00:48.772Z,5.10
2023-01-07T20:03:15.418Z,5.20
2023-01-07T20:05:42.047Z,5.30
2023-01-07T20:08:08.704Z,5.30
2023-01-07T20:10:35.344Z,5.30
2023-01-07T20:13:02.047Z,5.20
2023-01-07T20:15:28.851Z,5.00
2023-01-07T20:17:55.546Z,5.10
2023-01-07T20:20:22.211Z,5.10
2023-01-07T20:22:48.882Z,5.00
2023-01-07T20:25:15.585Z,4.70
2023-01-07T20:27:42.375Z,5.00
2023-01-07T20:30:09.025Z,5.10
2023-01-07T20:32:35.742Z,5.20
2023-01-07T20:35:02.488Z,5.20
2023-01-07T20:37:29.217Z,5.30
2023-01-07T20:39:56.034Z,5.40
2023-01-07T20:42:22.736Z,4.90
2023-01-07T20:44:49.412Z,5.00
2023-01-07T20:47:16.108Z,4.80
2023-01-07T20:49:43.107Z,4.60
2023-01-07T20:52:09.793Z,4.40
2023-01-07T20:54:36.792Z,4.30
2023-01-07T20:57:03.477Z,4.30
2023-01-07T20:59:30.184Z,4.30
2023-01-07T21:01:57.514Z,4.40
2023-01-07T21:04:24.330Z,4.50
2023-01-07T21:06:51.127Z,3.90
2023-01-07T21:09:18.001Z,4.20
2023-01-07T21:11:44.709Z,4.40
2023-01-07T21:14:11.391Z,4.50
2023-01-07T21:16:38.186Z,4.30
2023-01-07T21:19:04.982Z,4.20
2023-01-07T21:21:31.745Z,4.10
2023-01-07T21:23:58.400Z,4.20
2023-01-07T21:26:25.210Z,3.90
2023-01-07T21:28:51.894Z,4.00
2023-01-07T21:31:18.891Z,3.20
2023-01-07T21:33:45.617Z,3.70
2023-01-07T21:36:12.290Z,3.70
2023-01-07T21:38:38.986Z,3.90
2023-01-07T21:41:05.687Z,4.10
2023-01-07T21:43:33.821Z,4.00
2023-01-07T21:46:00.662Z,3.90
2023-01-07T21:48:27.375Z,3.90
2023-01-07T21:50:54.049Z,3.90
2023-01-07T21:53:20.916Z,3.80
2023-01-07T21:55:47.585Z,3.60
2023-01-07T21:58:14.299Z,3.60
2023-01-07T22:00:41.134Z,3.80
2023-01-07T22:03:07.783Z,3.60
2023-01-07T22:05:34.431Z,3.90
2023-01-07T22:08:01.233Z,4.10
2023-01-07T22:10:27.912Z,4.20
2023-01-07T22:12:54.651Z,4.00
2023-01-07T22:15:21.320Z,4.10
2023-01-07T22:17:47.992Z,4.20
2023-01-07T22:20:14.655Z,3.50
2023-01-07T22:22:41.504Z,3.70
2023-01-07T22:25:08.158Z,4.00
2023-01-07T22:27:34.841Z,4.10
2023-01-07T22:30:01.507Z,4.20
2023-01-07T22:32:28.161Z,4.10
2023-01-07T22:34:54.826Z,4.00
2023-01-07T22:37:21.600Z,3.90
2023-01-07T22:39:48.265Z,3.80
2023-01-07T22:42:14.991Z,3.50
2023-01-07T22:44:41.656Z,3.50
2023-01-07T22:47:08.359Z,3.60
2023-01-07T22:49:35.176Z,3.30
2023-01-07T22:52:01.885Z,2.90
2023-01-07T22:54:28.767Z,3.30
2023-01-07T22:56:55.439Z,3.50
2023-01-07T22:59:22.107Z,3.40
2023-01-07T23:01:48.780Z,3.50
2023-01-07T23:04:15.509Z,3.50
2023-01-07T23:06:42.378Z,3.30
2023-01-07T23:09:09.063Z,2.80
2023-01-07T23:11:35.838Z,3.10
2023-01-07T23:14:02.528Z,3.30
2023-01-07T23:16:29.346Z,3.50
2023-01-07T23:18:56.049Z,3.70
2023-01-07T23:21:22.743Z,3.60
2023-01-07T23:23:49.438Z,3.40
2023-01-07T23:26:16.149Z,3.10
2023-01-07T23:28:42.825Z,3.20
2023-01-07T23:31:09.663Z,3.30
2023-01-07T23:33:36.346Z,3.60
2023-01-07T23:36:03.006Z,3.70
2023-01-07T23:38:29.714Z,3.40
2023-01-07T23:40:56.391Z,2.70
2023-01-07T23:43:23.052Z,2.70
2023-01-07T23:45:49.890Z,2.90
2023-01-07T23:48:16.597Z,2.70
2023-01-07T23:50:43.247Z,2.90
2023-01-07T23:53:09.881Z,2.90
2023-01-07T23:55:36.521Z,3.00
2023-01-07T23:58:03.205Z,3.10
